Aérodrome :
LOGIN :

S'inscrire | Disclaimer

   EN    FR    IT 

 










Légende :    VFR   VFR Marginal   IFR   IFR Intensif   IFR Très Intensif
Visi : 
Plafond : 
>= 8 km
>= 3000ft
5 à 8 km
1000 à 3000 ft
1500m à 5 km
500 à 1000 ft
800 à 1500m
200 à 500 ft
< 800m
< 200 ft
Symboles :   Orages  Brouillard  Fortes neiges  Fortes précipitations  Vent > 20 kt
SIGMETs :   Divers  Orages  Givrage  Turbulence  Onde Orograph.  Cendres Volcan.







- Altitude de l'aérodrome : 325 ft
- Code IATA : BES
- Voir les cartes d'approche


LFRB - Brest

DERNIER METAR :
  • 202230Z AUTO 05006KT 5000 1800 BR NSC 10/09 Q1030 NOSIG

METARs EXPIRÉS :
  • 202200Z AUTO 05005KT 6000 NSC 10/09 Q1030 NOSIG
  • 202130Z AUTO 06007KT 7000 NSC 10/09 Q1029 NOSIG
  • 202100Z AUTO 06009KT 7000 NSC 10/09 Q1030 NOSIG
  • 202030Z AUTO 06010KT CAVOK 10/09 Q1030 NOSIG
  • 202000Z AUTO 05008KT CAVOK 11/09 Q1029 NOSIG

TAF TAF LFRB
Valide du 20 à 18h jusqu'au 22 à 00h UTC


201700Z 2018/2124 05007KT CAVOK
PROB40
TEMPO 2102/2107 3000 BR OVC005
BECMG 2121/2124 OVC005
ATIS : +33 2 98 32 02 71
Pas de NOTAMs connus pour ce terrain.



MET'MAP, la Météo Aéronautique d'un coup d'oeil ! - Copyright ORBIFLY Décembre 2007 - Disclaimer

ORBIFLY MET'MAP TEAM :

Programmation & Développement : Alexandra Zaïnal
Conception & Développement : Baudouin d'Aumeries
Co-Programmation & Développement : Marc-Olivier Méhu
Soutien technique & logistique : Manuel Goepfert

Contact : metmap@orbifly.com




SOURCES & CREDITS :

   NOAA